Time;durP1;ratioP1;P1;durP2;ratioP2;P2;SDS_P1;SDS_P2;PMS_P1;PMS_P2;Temp;Humidity;BMP_temperature;BMP_pressure;BME280_temperature;BME280_humidity;BME280_pressure;Samples;Min_cycle;Max_cycle;Signal;HPM_P1;HPM_P2
2022/09/11 00:01:39;;;;;;;6.40;4.00;;;17.10;99.90;;;;;;5063391;28;20020;-78
2022/09/11 00:04:05;;;;;;;6.05;3.95;;;17.10;99.90;;;;;;5108372;27;21648;-78
2022/09/11 00:06:30;;;;;;;6.10;3.78;;;17.20;99.90;;;;;;5069841;28;20035;-78
2022/09/11 00:09:03;;;;;;;5.80;3.40;;;17.20;99.90;;;;;;5043747;28;20012;-78
2022/09/11 00:11:39;;;;;;;6.13;3.67;;;17.20;99.90;;;;;;5062484;28;20005;-78
2022/09/11 00:14:05;;;;;;;6.35;3.58;;;17.20;99.90;;;;;;5066768;28;20460;-78
2022/09/11 00:16:34;;;;;;;6.22;3.50;;;17.20;99.90;;;;;;5068771;28;20099;-78
2022/09/11 00:19:05;;;;;;;5.33;3.63;;;17.20;99.90;;;;;;5075042;28;20016;-78
2022/09/11 00:21:32;;;;;;;5.57;3.33;;;17.20;99.90;;;;;;5059447;28;20462;-78
2022/09/11 00:23:58;;;;;;;4.80;3.38;;;17.20;99.90;;;;;;5051483;28;20022;-78
2022/09/11 00:26:24;;;;;;;6.30;3.90;;;17.20;99.90;;;;;;5075586;28;20027;-78
2022/09/11 00:28:51;;;;;;;5.78;3.70;;;17.10;99.90;;;;;;5042328;28;20120;-78
2022/09/11 00:31:19;;;;;;;5.90;3.30;;;17.20;99.90;;;;;;5077368;28;20068;-78
2022/09/11 00:33:45;;;;;;;6.38;3.65;;;17.10;99.90;;;;;;5035755;28;20250;-78
2022/09/11 00:36:13;;;;;;;7.75;4.13;;;17.10;99.90;;;;;;5069917;28;20105;-78
2022/09/11 00:38:39;;;;;;;6.40;3.83;;;17.20;99.90;;;;;;5052254;28;20312;-78
2022/09/11 00:41:25;;;;;;;6.23;3.63;;;17.10;99.90;;;;;;5052989;28;20017;-78
2022/09/11 00:43:56;;;;;;;5.07;3.17;;;17.10;99.90;;;;;;5054878;28;20762;-79
2022/09/11 00:46:28;;;;;;;6.00;3.75;;;17.10;99.90;;;;;;5082606;27;20040;-78
2022/09/11 00:48:56;;;;;;;5.75;3.47;;;17.10;99.90;;;;;;5064097;28;20058;-78
2022/09/11 00:51:27;;;;;;;5.45;3.40;;;17.10;99.90;;;;;;5070570;28;20026;-78
2022/09/11 00:53:56;;;;;;;5.63;3.20;;;17.10;99.90;;;;;;5060057;28;20648;-78
2022/09/11 00:56:26;;;;;;;5.30;3.40;;;17.00;99.90;;;;;;5050881;28;20498;-78
2022/09/11 00:58:54;;;;;;;6.35;3.92;;;17.00;99.90;;;;;;5067307;28;20047;-78
2022/09/11 01:01:20;;;;;;;5.40;3.42;;;17.00;99.90;;;;;;5040404;28;21328;-78
2022/09/11 01:03:46;;;;;;;6.25;3.53;;;16.90;99.90;;;;;;5051379;28;20069;-78
2022/09/11 01:06:13;;;;;;;5.23;3.53;;;16.90;99.90;;;;;;5062036;28;20016;-78
2022/09/11 01:08:39;;;;;;;4.95;3.30;;;16.90;99.90;;;;;;5049373;28;20720;-78
2022/09/11 01:11:34;;;;;;;9.30;3.60;;;16.80;99.90;;;;;;5062123;28;20103;-78
2022/09/11 01:14:00;;;;;;;5.38;3.63;;;16.80;99.90;;;;;;5057205;28;20049;-78
2022/09/11 01:16:41;;;;;;;5.20;3.42;;;16.80;99.90;;;;;;5054244;28;20037;-78
2022/09/11 01:19:25;;;;;;;5.43;3.60;;;16.70;99.90;;;;;;5076414;27;20581;-78
2022/09/11 01:22:26;;;;;;;5.25;3.17;;;16.70;99.90;;;;;;5069791;28;20374;-78
2022/09/11 01:25:14;;;;;;;5.35;3.42;;;16.60;99.90;;;;;;5062548;28;20145;-78
2022/09/11 01:27:46;;;;;;;10.10;4.50;;;16.70;99.90;;;;;;5038746;28;20359;-79
2022/09/11 01:30:20;;;;;;;8.13;4.15;;;16.60;99.90;;;;;;5076539;28;20089;-78
2022/09/11 01:33:05;;;;;;;6.50;4.07;;;16.60;99.90;;;;;;5064080;28;20304;-78
2022/09/11 01:36:00;;;;;;;7.15;3.88;;;16.60;99.90;;;;;;5041382;28;20111;-78
2022/09/11 01:38:32;;;;;;;13.00;3.85;;;16.60;99.90;;;;;;5062247;28;20562;-78
2022/09/11 01:41:01;;;;;;;8.13;3.95;;;16.50;99.90;;;;;;5066897;28;20111;-78
2022/09/11 01:43:33;;;;;;;6.35;3.85;;;16.50;99.90;;;;;;5075932;28;20032;-78
2022/09/11 01:46:02;;;;;;;10.30;4.10;;;16.50;99.90;;;;;;5073132;28;20020;-78
2022/09/11 01:48:37;;;;;;;10.43;4.13;;;16.40;99.90;;;;;;5052886;28;20027;-78
2022/09/11 01:51:06;;;;;;;7.93;3.58;;;16.40;99.90;;;;;;5076732;28;20020;-78
2022/09/11 01:53:36;;;;;;;8.30;3.10;;;16.40;99.90;;;;;;5059504;28;20365;-78
2022/09/11 01:56:12;;;;;;;6.70;3.60;;;16.30;99.90;;;;;;5056987;28;20028;-79
2022/09/11 01:58:40;;;;;;;6.87;3.83;;;16.30;99.90;;;;;;5077469;28;20047;-79
2022/09/11 02:01:13;;;;;;;8.15;3.78;;;16.30;99.90;;;;;;5034611;28;20112;-78
2022/09/11 02:03:46;;;;;;;8.13;3.63;;;16.30;99.90;;;;;;5054762;28;20029;-78
2022/09/11 02:06:17;;;;;;;7.57;3.58;;;16.30;99.90;;;;;;5063957;28;20150;-78
2022/09/11 02:08:44;;;;;;;9.60;3.88;;;16.30;99.90;;;;;;5065402;28;20120;-79
2022/09/11 02:11:13;;;;;;;10.10;4.30;;;16.30;99.90;;;;;;5052926;28;20526;-79
2022/09/11 02:13:53;;;;;;;7.28;3.78;;;16.30;99.90;;;;;;5063267;27;20056;-78
2022/09/11 02:16:46;;;;;;;7.85;3.85;;;16.30;99.90;;;;;;5078039;28;20020;-78
2022/09/11 02:19:15;;;;;;;9.18;3.67;;;16.30;99.90;;;;;;5055987;28;21207;-79
2022/09/11 02:21:42;;;;;;;19.33;3.60;;;16.30;99.90;;;;;;5050677;28;20040;-79
2022/09/11 02:24:08;;;;;;;8.57;3.87;;;16.30;99.90;;;;;;5069725;28;20225;-79
2022/09/11 02:26:40;;;;;;;16.45;4.43;;;16.30;99.90;;;;;;5070264;28;20028;-79
2022/09/11 02:29:06;;;;;;;5.82;3.60;;;16.30;99.90;;;;;;5056646;28;20047;-79
2022/09/11 02:31:33;;;;;;;14.88;4.80;;;16.30;99.90;;;;;;5061167;28;20081;-79
2022/09/11 02:33:59;;;;;;;25.02;4.95;;;16.30;99.90;;;;;;5053791;27;20143;-79
2022/09/11 02:36:31;;;;;;;16.70;4.23;;;16.30;99.90;;;;;;5071233;28;20012;-78
2022/09/11 02:39:20;;;;;;;18.88;4.25;;;16.40;99.90;;;;;;5059272;28;20495;-79
2022/09/11 02:42:08;;;;;;;11.30;4.28;;;16.40;99.90;;;;;;5077484;28;20107;-79
2022/09/11 02:45:16;;;;;;;14.53;4.30;;;16.30;99.90;;;;;;5061943;28;20020;-79
2022/09/11 02:48:04;;;;;;;2.85;2.17;;;16.40;99.90;;;;;;5049884;28;20492;-79
2022/09/11 02:50:51;;;;;;;4.53;3.25;;;16.40;99.90;;;;;;5060245;28;20559;-78
2022/09/11 02:53:39;;;;;;;9.23;3.65;;;16.40;99.90;;;;;;5054159;28;20146;-78
2022/09/11 02:56:36;;;;;;;9.43;3.72;;;16.40;99.90;;;;;;5054289;28;20156;-78
2022/09/11 02:59:16;;;;;;;13.23;3.77;;;16.30;99.90;;;;;;5034820;28;20045;-78
2022/09/11 03:01:46;;;;;;;8.88;3.47;;;16.30;99.90;;;;;;5071460;28;20024;-78
2022/09/11 03:04:14;;;;;;;5.93;3.92;;;16.30;99.90;;;;;;5054674;28;20790;-78
2022/09/11 03:06:41;;;;;;;5.32;3.55;;;16.30;99.90;;;;;;5054509;28;20028;-79
2022/09/11 03:09:08;;;;;;;5.63;3.75;;;16.30;99.90;;;;;;5066736;28;20232;-79
2022/09/11 03:11:34;;;;;;;5.27;3.80;;;16.30;99.90;;;;;;5065435;28;20026;-78
2022/09/11 03:14:00;;;;;;;5.05;3.55;;;16.30;99.90;;;;;;5072766;28;20166;-78
2022/09/11 03:16:26;;;;;;;6.18;3.65;;;16.30;99.90;;;;;;5038585;28;20468;-78
2022/09/11 03:18:52;;;;;;;4.00;2.88;;;16.30;99.90;;;;;;5054568;28;20032;-78
2022/09/11 03:21:18;;;;;;;6.20;3.50;;;16.30;99.90;;;;;;5065605;28;20431;-78
2022/09/11 03:23:43;;;;;;;8.85;3.97;;;16.30;99.90;;;;;;5080328;28;20253;-78
2022/09/11 03:26:10;;;;;;;12.20;4.30;;;16.30;99.90;;;;;;5070708;28;20686;-78
2022/09/11 03:28:35;;;;;;;7.87;3.83;;;16.30;99.90;;;;;;5065572;28;20789;-78
2022/09/11 03:31:01;;;;;;;12.48;4.28;;;16.30;99.90;;;;;;5050658;28;20848;-79
2022/09/11 03:33:27;;;;;;;9.90;3.78;;;16.40;99.90;;;;;;5076686;28;20117;-79
2022/09/11 03:35:53;;;;;;;5.50;3.40;;;16.40;99.90;;;;;;5039617;28;20025;-78
2022/09/11 03:38:19;;;;;;;11.02;3.97;;;16.30;99.90;;;;;;5065264;28;20468;-79
2022/09/11 03:40:44;;;;;;;6.70;3.57;;;16.40;99.90;;;;;;5056224;28;20052;-78
2022/09/11 03:43:15;;;;;;;8.95;3.90;;;16.40;99.90;;;;;;5075573;28;20257;-78
2022/09/11 03:45:41;;;;;;;8.15;4.15;;;16.40;99.90;;;;;;5060784;28;20095;-78
2022/09/11 03:48:07;;;;;;;8.20;3.97;;;16.40;99.90;;;;;;5054727;28;20272;-79
2022/09/11 03:50:32;;;;;;;13.23;4.30;;;16.40;99.90;;;;;;5063682;28;20023;-78
2022/09/11 03:52:58;;;;;;;10.80;4.23;;;16.40;99.90;;;;;;5061127;28;20320;-78
2022/09/11 03:55:24;;;;;;;17.20;4.53;;;16.50;99.90;;;;;;5071761;28;20484;-79
2022/09/11 03:57:50;;;;;;;8.90;4.20;;;16.40;99.90;;;;;;5072617;28;20083;-79
2022/09/11 04:00:15;;;;;;;10.13;3.90;;;16.50;99.90;;;;;;5070298;28;20282;-78
2022/09/11 04:02:41;;;;;;;14.40;4.73;;;16.50;99.90;;;;;;5044029;28;20060;-79
2022/09/11 04:05:07;;;;;;;13.88;4.63;;;16.50;99.90;;;;;;5045013;28;20572;-79
2022/09/11 04:07:33;;;;;;;12.00;4.13;;;16.50;99.90;;;;;;5063153;28;20391;-78
2022/09/11 04:09:59;;;;;;;6.00;4.10;;;16.50;99.90;;;;;;5062786;28;20020;-78
2022/09/11 04:12:25;;;;;;;7.28;3.88;;;16.60;99.90;;;;;;5062211;28;20077;-78
2022/09/11 04:14:51;;;;;;;12.90;4.30;;;16.60;99.90;;;;;;5071856;28;20480;-78
2022/09/11 04:17:16;;;;;;;9.00;3.95;;;16.60;99.90;;;;;;5055177;28;20160;-78
2022/09/11 04:19:42;;;;;;;10.75;4.00;;;16.60;99.90;;;;;;5049459;28;20038;-78
2022/09/11 04:22:08;;;;;;;7.27;4.20;;;16.60;99.90;;;;;;5035212;28;20148;-78
2022/09/11 04:24:34;;;;;;;9.73;4.53;;;16.60;99.90;;;;;;5052205;28;20027;-78
2022/09/11 04:26:59;;;;;;;6.37;4.07;;;16.60;99.90;;;;;;5063153;28;20292;-78
2022/09/11 04:29:26;;;;;;;7.60;3.65;;;16.60;99.90;;;;;;5075979;28;20016;-78
2022/09/11 04:31:52;;;;;;;7.47;4.20;;;16.60;99.90;;;;;;5066242;28;20119;-78
2022/09/11 04:34:18;;;;;;;5.77;3.20;;;16.60;99.90;;;;;;5048410;28;20849;-78
2022/09/11 04:36:44;;;;;;;6.28;3.65;;;16.60;99.90;;;;;;5057148;28;20115;-78
2022/09/11 04:39:10;;;;;;;6.37;3.77;;;16.60;99.90;;;;;;5066116;28;20561;-78
2022/09/11 04:41:36;;;;;;;7.10;4.00;;;16.60;99.90;;;;;;5069572;28;20030;-78
2022/09/11 04:44:02;;;;;;;5.35;3.88;;;16.60;99.90;;;;;;5039428;28;20024;-78
2022/09/11 04:46:28;;;;;;;5.30;3.63;;;16.50;99.90;;;;;;5068899;28;20032;-78
2022/09/11 04:48:58;;;;;;;5.33;3.60;;;16.50;99.90;;;;;;5049399;28;20035;-78
2022/09/11 04:51:35;;;;;;;5.80;4.00;;;16.50;99.90;;;;;;5068827;28;20503;-78
2022/09/11 04:54:02;;;;;;;8.55;4.35;;;16.50;99.90;;;;;;5047577;28;20349;-78
2022/09/11 04:56:30;;;;;;;5.47;3.47;;;16.50;99.90;;;;;;5068409;28;20061;-78
2022/09/11 04:59:01;;;;;;;6.57;3.78;;;16.50;99.90;;;;;;5051737;28;20436;-78
2022/09/11 05:01:29;;;;;;;5.67;3.87;;;16.50;99.90;;;;;;5064090;28;20040;-78
2022/09/11 05:03:55;;;;;;;6.20;3.58;;;16.50;99.90;;;;;;5028688;28;20024;-78
2022/09/11 05:06:21;;;;;;;7.10;4.05;;;16.50;99.90;;;;;;5054275;28;20902;-78
2022/09/11 05:08:48;;;;;;;5.97;4.00;;;16.50;99.90;;;;;;5044399;28;20171;-78
2022/09/11 05:11:16;;;;;;;11.18;4.03;;;16.50;99.90;;;;;;5059721;28;20030;-78
2022/09/11 05:13:42;;;;;;;6.17;3.60;;;16.50;99.90;;;;;;5062936;28;20565;-78
2022/09/11 05:16:11;;;;;;;9.10;3.97;;;16.50;99.90;;;;;;5056201;28;20020;-78
2022/09/11 05:18:38;;;;;;;7.75;3.70;;;16.50;99.90;;;;;;5065869;28;20046;-78
2022/09/11 05:21:06;;;;;;;8.32;3.72;;;16.50;99.90;;;;;;5061259;28;20031;-78
2022/09/11 05:23:33;;;;;;;6.72;4.05;;;16.50;99.90;;;;;;5042755;28;20634;-78
2022/09/11 05:26:00;;;;;;;6.77;3.77;;;16.50;99.90;;;;;;5060200;28;20392;-78
2022/09/11 05:28:27;;;;;;;7.25;4.15;;;16.50;99.90;;;;;;5047639;28;20634;-78
2022/09/11 05:30:54;;;;;;;8.02;3.83;;;16.50;99.90;;;;;;5071318;28;20368;-78
2022/09/11 05:33:24;;;;;;;6.82;3.80;;;16.50;99.90;;;;;;5074338;28;20429;-78
2022/09/11 05:35:52;;;;;;;9.82;3.72;;;16.50;99.90;;;;;;5073944;28;20534;-78
2022/09/11 05:38:18;;;;;;;10.17;3.90;;;16.60;99.90;;;;;;5044519;28;20017;-78
2022/09/11 05:40:49;;;;;;;7.85;3.58;;;16.60;99.90;;;;;;5057466;28;20046;-78
2022/09/11 05:43:16;;;;;;;5.90;3.78;;;16.50;99.90;;;;;;5035853;28;20036;-78
2022/09/11 05:45:44;;;;;;;9.10;4.00;;;16.60;99.90;;;;;;5066452;28;20830;-78
2022/09/11 05:48:10;;;;;;;7.43;4.32;;;16.50;99.90;;;;;;5072211;28;20107;-78
2022/09/11 05:50:36;;;;;;;6.53;4.07;;;16.50;99.90;;;;;;5050915;28;20839;-78
2022/09/11 05:53:04;;;;;;;10.68;4.07;;;16.50;99.90;;;;;;5042103;28;20032;-78
2022/09/11 05:55:34;;;;;;;5.90;4.00;;;16.60;99.90;;;;;;5050284;28;20424;-78
2022/09/11 05:58:00;;;;;;;9.00;4.40;;;16.60;99.90;;;;;;5044684;28;20439;-78
2022/09/11 06:00:26;;;;;;;6.75;4.13;;;16.50;99.90;;;;;;5052670;28;20024;-78
2022/09/11 06:02:53;;;;;;;9.77;4.23;;;16.60;99.90;;;;;;5060819;28;20043;-78
2022/09/11 06:05:19;;;;;;;12.45;4.13;;;16.60;99.90;;;;;;5056578;28;20039;-78
2022/09/11 06:07:45;;;;;;;7.55;4.07;;;16.60;99.90;;;;;;5035359;28;20404;-78
2022/09/11 06:10:11;;;;;;;12.73;4.50;;;16.60;99.90;;;;;;5049131;28;20023;-78
2022/09/11 06:12:37;;;;;;;9.63;4.68;;;16.60;99.90;;;;;;5054979;28;20017;-78
2022/09/11 06:15:02;;;;;;;7.03;4.53;;;16.60;99.90;;;;;;5065398;28;20140;-78
2022/09/11 06:17:28;;;;;;;9.93;4.38;;;16.70;99.90;;;;;;5053652;28;20177;-78
2022/09/11 06:19:54;;;;;;;8.13;3.90;;;16.70;99.90;;;;;;5069886;28;20278;-78
2022/09/11 06:22:20;;;;;;;7.88;4.05;;;16.70;99.90;;;;;;5050461;28;20035;-78
2022/09/11 06:24:47;;;;;;;11.57;4.47;;;16.70;99.90;;;;;;5046759;28;20677;-78
2022/09/11 06:27:14;;;;;;;11.77;4.50;;;16.80;99.90;;;;;;5058667;28;20016;-79
2022/09/11 06:29:40;;;;;;;12.30;4.60;;;16.80;99.90;;;;;;5030506;28;20020;-78
2022/09/11 06:32:06;;;;;;;10.95;4.70;;;16.80;99.90;;;;;;5059701;28;20236;-79
2022/09/11 06:34:32;;;;;;;23.73;5.30;;;16.80;99.90;;;;;;5061320;28;20055;-78
2022/09/11 06:36:57;;;;;;;11.10;4.47;;;16.90;99.90;;;;;;5053985;28;20154;-78
2022/09/11 06:39:23;;;;;;;19.93;5.10;;;16.90;99.90;;;;;;5056145;28;20116;-78
2022/09/11 06:41:49;;;;;;;10.57;4.88;;;16.90;99.90;;;;;;5054921;28;20581;-78
2022/09/11 06:44:14;;;;;;;13.80;5.07;;;17.00;99.90;;;;;;5069611;28;20043;-78
2022/09/11 06:46:41;;;;;;;39.25;5.28;;;17.00;99.90;;;;;;5031747;28;20036;-78
2022/09/11 06:49:06;;;;;;;15.38;5.18;;;17.00;99.90;;;;;;5065646;28;20381;-78
2022/09/11 06:51:33;;;;;;;21.60;5.50;;;17.00;99.90;;;;;;5042946;28;20016;-78
2022/09/11 06:54:01;;;;;;;23.88;6.15;;;17.10;99.90;;;;;;5069832;28;20209;-78
2022/09/11 06:56:28;;;;;;;18.35;5.22;;;17.20;99.90;;;;;;5062442;28;20107;-78
2022/09/11 06:58:53;;;;;;;21.63;5.38;;;17.20;99.90;;;;;;5059374;28;20647;-78
2022/09/11 07:01:20;;;;;;;30.47;5.67;;;17.30;99.90;;;;;;5053249;28;20020;-78
2022/09/11 07:03:48;;;;;;;13.73;5.20;;;17.30;99.90;;;;;;5065478;28;21139;-78
2022/09/11 07:06:19;;;;;;;14.63;5.40;;;17.40;99.90;;;;;;5072141;28;20287;-78
2022/09/11 07:08:53;;;;;;;18.38;5.70;;;17.40;99.90;;;;;;5046675;28;20023;-78
2022/09/11 07:11:19;;;;;;;24.90;5.77;;;17.60;99.90;;;;;;5059623;28;20537;-78
2022/09/11 07:13:45;;;;;;;27.25;5.90;;;17.60;99.90;;;;;;5072688;28;20444;-78
2022/09/11 07:16:12;;;;;;;16.92;5.65;;;17.60;99.90;;;;;;5047394;28;20062;-78
2022/09/11 07:18:43;;;;;;;13.07;4.87;;;17.70;99.90;;;;;;5040117;28;20046;-78
2022/09/11 07:21:12;;;;;;;23.60;5.80;;;17.70;99.90;;;;;;5046017;28;20673;-78
2022/09/11 07:23:39;;;;;;;15.98;5.88;;;17.80;99.90;;;;;;5053455;28;20062;-79
2022/09/11 07:26:07;;;;;;;24.27;5.80;;;17.80;99.90;;;;;;5055093;28;20050;-78
2022/09/11 07:28:33;;;;;;;21.55;5.55;;;17.80;99.90;;;;;;5058545;28;20036;-79
2022/09/11 07:31:28;;;;;;;15.53;5.73;;;17.90;99.90;;;;;;5059133;28;21523;-78
2022/09/11 07:33:53;;;;;;;16.02;5.50;;;18.00;99.90;;;;;;5051865;28;20032;-78
2022/09/11 07:36:25;;;;;;;15.40;6.28;;;18.00;99.90;;;;;;5066970;28;20070;-78
2022/09/11 07:38:53;;;;;;;12.82;5.90;;;18.10;99.90;;;;;;5048312;28;20492;-78
2022/09/11 07:41:20;;;;;;;24.42;5.82;;;18.10;99.90;;;;;;5029771;28;24260;-78
2022/09/11 07:43:50;;;;;;;12.57;5.83;;;18.10;99.90;;;;;;5070536;28;20031;-78
2022/09/11 07:46:16;;;;;;;13.48;6.10;;;18.20;99.90;;;;;;5073087;28;20337;-78
2022/09/11 07:48:42;;;;;;;20.10;7.05;;;18.20;99.90;;;;;;5059547;28;20097;-79
2022/09/11 07:51:10;;;;;;;21.85;7.10;;;18.30;99.90;;;;;;5037892;28;20250;-79
2022/09/11 07:53:39;;;;;;;17.17;6.97;;;18.30;99.90;;;;;;5065566;28;20024;-79
2022/09/11 07:56:07;;;;;;;19.00;6.80;;;18.40;99.90;;;;;;5034100;28;20273;-79
2022/09/11 07:58:34;;;;;;;19.30;6.40;;;18.40;99.90;;;;;;5036726;28;20035;-79
2022/09/11 08:01:02;;;;;;;23.15;6.82;;;18.50;99.90;;;;;;5058949;28;20016;-78
2022/09/11 08:03:29;;;;;;;24.38;7.18;;;18.50;99.90;;;;;;5040039;28;20110;-79
2022/09/11 08:06:00;;;;;;;16.17;6.90;;;18.50;99.90;;;;;;5056041;28;20016;-79
2022/09/11 08:08:27;;;;;;;20.95;7.80;;;18.60;99.90;;;;;;5057063;28;20032;-79
2022/09/11 08:11:00;;;;;;;21.60;8.00;;;18.60;99.90;;;;;;5051962;28;20016;-79
2022/09/11 08:13:26;;;;;;;23.13;7.82;;;18.70;99.90;;;;;;5056090;28;21624;-78
2022/09/11 08:15:51;;;;;;;20.40;7.80;;;18.70;99.90;;;;;;5082759;27;20516;-79
2022/09/11 08:18:17;;;;;;;15.35;7.88;;;18.80;99.90;;;;;;5060636;28;20600;-78
2022/09/11 08:20:43;;;;;;;13.15;7.55;;;18.80;99.90;;;;;;5036565;28;20012;-78
2022/09/11 08:23:09;;;;;;;19.63;7.50;;;18.90;99.90;;;;;;5051154;28;20641;-78
2022/09/11 08:25:36;;;;;;;21.27;7.70;;;18.90;99.90;;;;;;5076524;28;20060;-78
2022/09/11 08:28:02;;;;;;;23.83;7.82;;;18.90;99.90;;;;;;5043845;28;20268;-79
2022/09/11 08:30:29;;;;;;;18.30;7.50;;;19.00;99.90;;;;;;5082407;27;20028;-78
2022/09/11 08:32:54;;;;;;;23.90;7.97;;;19.00;99.90;;;;;;5053364;28;20020;-78
2022/09/11 08:35:20;;;;;;;24.50;8.10;;;19.10;99.90;;;;;;5054627;28;20024;-78
2022/09/11 08:37:46;;;;;;;14.53;7.27;;;19.20;99.90;;;;;;5045815;28;20043;-78
2022/09/11 08:40:12;;;;;;;19.45;7.80;;;19.30;99.90;;;;;;5074549;28;20156;-78
2022/09/11 08:42:43;;;;;;;17.53;7.47;;;19.40;99.90;;;;;;5045343;28;20115;-79
2022/09/11 08:45:15;;;;;;;13.32;7.28;;;19.40;99.90;;;;;;5045749;28;20700;-78
2022/09/11 08:47:48;;;;;;;14.93;8.10;;;19.50;99.90;;;;;;5066715;28;20040;-78
2022/09/11 08:50:32;;;;;;;17.30;8.38;;;19.60;99.90;;;;;;5062472;28;20024;-79
2022/09/11 08:53:01;;;;;;;18.58;8.20;;;19.70;99.90;;;;;;5056760;28;20099;-78
2022/09/11 08:55:32;;;;;;;19.73;8.50;;;19.80;99.90;;;;;;5061128;28;20017;-78
2022/09/11 08:58:17;;;;;;;22.67;9.10;;;19.80;99.90;;;;;;5054225;28;20655;-78
2022/09/11 09:01:05;;;;;;;17.45;8.88;;;19.90;99.90;;;;;;5039126;28;20064;-78
2022/09/11 09:03:37;;;;;;;17.08;7.78;;;20.00;99.90;;;;;;5056783;28;20469;-78
2022/09/11 09:06:31;;;;;;;18.58;8.60;;;20.10;99.90;;;;;;5054882;28;20032;-78
2022/09/11 09:09:16;;;;;;;15.67;8.20;;;20.10;99.90;;;;;;5058416;28;20024;-78
2022/09/11 09:12:14;;;;;;;18.67;8.70;;;20.30;99.90;;;;;;5053549;28;20282;-78
2022/09/11 09:14:55;;;;;;;16.25;8.15;;;20.30;99.90;;;;;;5077890;27;20103;-78
2022/09/11 09:17:27;;;;;;;16.80;7.93;;;20.40;99.90;;;;;;5050873;28;20032;-78
2022/09/11 09:20:01;;;;;;;17.00;8.73;;;20.40;99.90;;;;;;5054254;28;20047;-78
2022/09/11 09:22:45;;;;;;;17.70;9.00;;;20.50;99.90;;;;;;5066041;28;20089;-78
2022/09/11 09:25:14;;;;;;;18.33;8.77;;;20.60;99.90;;;;;;5059965;28;20668;-78
2022/09/11 09:27:48;;;;;;;18.05;8.15;;;20.60;99.90;;;;;;5059939;28;20029;-78
2022/09/11 09:30:26;;;;;;;18.20;8.77;;;20.70;99.90;;;;;;5069157;28;20058;-78
2022/09/11 09:33:05;;;;;;;17.13;8.25;;;20.70;99.90;;;;;;5039618;28;20028;-78
2022/09/11 09:35:39;;;;;;;16.07;8.83;;;20.70;99.90;;;;;;5081990;28;20404;-78
2022/09/11 09:38:17;;;;;;;15.57;8.38;;;20.80;99.90;;;;;;5060109;28;20025;-78
2022/09/11 09:41:04;;;;;;;16.63;8.90;;;20.80;99.90;;;;;;5073066;28;20062;-78
2022/09/11 09:43:42;;;;;;;17.05;8.60;;;20.80;99.90;;;;;;5054415;28;20024;-78
2022/09/11 09:46:35;;;;;;;17.85;8.88;;;20.90;99.90;;;;;;5067012;28;20563;-78
2022/09/11 09:49:01;;;;;;;15.97;7.80;;;20.90;99.90;;;;;;5046660;28;20734;-78
2022/09/11 09:51:27;;;;;;;15.93;7.78;;;21.00;99.90;;;;;;5078544;28;20392;-78
2022/09/11 09:54:00;;;;;;;16.35;8.40;;;21.00;99.90;;;;;;5034924;28;20021;-79
2022/09/11 09:56:29;;;;;;;15.57;8.32;;;21.00;99.90;;;;;;5068595;28;20019;-78
2022/09/11 09:59:21;;;;;;;13.95;7.55;;;21.10;99.90;;;;;;5040127;28;20069;-78
2022/09/11 10:01:49;;;;;;;13.57;7.33;;;21.10;99.90;;;;;;5043557;28;20388;-78
2022/09/11 10:04:21;;;;;;;13.63;7.05;;;21.20;99.90;;;;;;5077790;28;20443;-78
2022/09/11 10:06:50;;;;;;;12.70;7.22;;;21.40;99.90;;;;;;5063421;28;20021;-78
2022/09/11 10:09:28;;;;;;;13.20;7.25;;;21.50;99.90;;;;;;5062882;28;20016;-78
2022/09/11 10:12:05;;;;;;;13.40;7.28;;;21.60;99.90;;;;;;5042284;28;20111;-79
2022/09/11 10:14:53;;;;;;;15.17;8.13;;;21.60;99.90;;;;;;5051118;28;20122;-78
2022/09/11 10:17:34;;;;;;;15.27;8.43;;;21.80;99.90;;;;;;5058547;28;20496;-78
2022/09/11 10:20:21;;;;;;;15.80;8.38;;;21.90;99.90;;;;;;5061683;28;20315;-78
2022/09/11 10:22:48;;;;;;;16.77;8.68;;;22.00;99.90;;;;;;5044371;28;20446;-78
2022/09/11 10:25:26;;;;;;;16.33;8.85;;;22.00;99.90;;;;;;5083559;28;20046;-78
2022/09/11 10:27:58;;;;;;;13.60;8.00;;;22.10;99.90;;;;;;5053666;28;20032;-78
2022/09/11 10:30:39;;;;;;;13.85;7.55;;;22.20;99.90;;;;;;5056436;28;20127;-78
2022/09/11 10:33:25;;;;;;;13.25;7.88;;;22.30;99.90;;;;;;5048667;28;20611;-78
2022/09/11 10:35:55;;;;;;;12.75;7.57;;;22.50;99.90;;;;;;5073211;28;20016;-78
2022/09/11 10:38:32;;;;;;;12.48;7.35;;;22.50;99.90;;;;;;5083088;27;20020;-78
2022/09/11 10:41:06;;;;;;;13.27;7.53;;;22.60;99.90;;;;;;5053831;28;20063;-78
2022/09/11 10:43:46;;;;;;;11.48;7.25;;;22.60;99.90;;;;;;5059168;28;20051;-78
2022/09/11 10:46:17;;;;;;;11.35;6.95;;;22.70;99.90;;;;;;5071855;28;20627;-78
2022/09/11 10:49:01;;;;;;;11.52;7.32;;;22.80;99.90;;;;;;5070331;28;20120;-78
2022/09/11 10:51:30;;;;;;;11.70;7.32;;;22.90;99.90;;;;;;5051256;28;20117;-78
2022/09/11 10:53:58;;;;;;;12.67;7.77;;;23.00;99.90;;;;;;5070516;28;20113;-78
2022/09/11 10:56:25;;;;;;;12.23;7.53;;;23.20;99.90;;;;;;5048951;28;20069;-78
2022/09/11 10:58:57;;;;;;;14.40;8.27;;;23.30;99.90;;;;;;5055472;28;20055;-78
2022/09/11 11:01:23;;;;;;;11.43;7.40;;;23.50;99.90;;;;;;5064442;28;20032;-78
2022/09/11 11:03:48;;;;;;;12.73;7.70;;;23.60;99.90;;;;;;5068715;28;20032;-79
2022/09/11 11:06:36;;;;;;;12.07;7.65;;;23.70;99.90;;;;;;5050859;28;20032;-78
2022/09/11 11:09:23;;;;;;;11.98;7.80;;;23.80;99.90;;;;;;5063583;28;20271;-79
2022/09/11 11:11:49;;;;;;;9.43;6.63;;;24.00;99.90;;;;;;5041714;28;20031;-79
2022/09/11 11:14:58;;;;;;;9.43;6.95;;;24.30;99.90;;;;;;5070992;28;20032;-78
2022/09/11 11:17:57;;;;;;;9.02;6.05;;;24.50;99.90;;;;;;4978704;28;20699;-79
2022/09/11 11:20:32;;;;;;;10.00;6.68;;;24.70;99.90;;;;;;5028428;28;20036;-79
2022/09/11 11:23:13;;;;;;;9.82;6.57;;;24.70;99.90;;;;;;5066635;28;20036;-79
2022/09/11 11:26:15;;;;;;;10.63;7.07;;;24.90;99.90;;;;;;5036856;28;20043;-79
2022/09/11 11:29:13;;;;;;;11.02;7.07;;;24.90;99.90;;;;;;5072633;28;20859;-79
2022/09/11 11:32:03;;;;;;;8.50;6.32;;;25.10;99.90;;;;;;5070175;28;20043;-79
2022/09/11 11:34:49;;;;;;;9.35;6.50;;;25.20;99.90;;;;;;5050910;28;20508;-79
2022/09/11 11:37:22;;;;;;;9.63;6.35;;;25.30;99.90;;;;;;5057067;28;20518;-79
2022/09/11 11:40:00;;;;;;;8.80;6.93;;;25.50;99.90;;;;;;5061543;28;20034;-79
2022/09/11 11:42:34;;;;;;;7.93;6.43;;;25.60;99.90;;;;;;5056295;28;20016;-79
2022/09/11 11:45:14;;;;;;;9.63;6.85;;;25.70;99.90;;;;;;5058687;28;20451;-80
2022/09/11 11:47:43;;;;;;;9.30;7.05;;;25.90;99.90;;;;;;5031152;28;20066;-79
2022/09/11 11:50:21;;;;;;;9.82;7.43;;;26.20;99.90;;;;;;5054374;28;20035;-83
2022/09/11 11:52:50;;;;;;;9.37;7.37;;;26.60;99.90;;;;;;5051620;28;20032;-83
2022/09/11 11:55:26;;;;;;;8.43;6.95;;;27.10;99.90;;;;;;5056721;28;20033;-80
2022/09/11 11:58:37;;;;;;;7.78;6.45;;;27.50;99.90;;;;;;5047928;28;21237;-80
2022/09/11 12:01:10;;;;;;;7.22;6.35;;;28.10;99.90;;;;;;5038655;28;20028;-80
2022/09/11 12:03:43;;;;;;;6.57;5.88;;;28.70;99.90;;;;;;5080529;28;20036;-80
2022/09/11 12:06:10;;;;;;;6.33;5.60;;;29.10;99.90;;;;;;5051171;28;20709;-79
2022/09/11 12:08:45;;;;;;;6.50;5.38;;;29.50;99.90;;;;;;5067281;28;20025;-80
2022/09/11 12:11:15;;;;;;;5.88;5.28;;;29.80;99.90;;;;;;5066355;27;20661;-80
2022/09/11 12:13:43;;;;;;;5.60;5.10;;;30.20;99.90;;;;;;5038478;28;20047;-80
2022/09/11 12:16:32;;;;;;;6.35;5.35;;;30.50;99.90;;;;;;5075928;28;20202;-80
2022/09/11 12:19:13;;;;;;;5.23;4.73;;;30.80;99.90;;;;;;5034592;28;20640;-80
2022/09/11 12:22:04;;;;;;;5.03;4.57;;;31.20;99.90;;;;;;5063902;28;20024;-80
2022/09/11 12:24:49;;;;;;;6.03;4.82;;;31.40;98.10;;;;;;5068580;28;20289;-80
2022/09/11 12:27:33;;;;;;;4.72;4.32;;;31.60;97.00;;;;;;5041224;28;20036;-80
2022/09/11 12:30:29;;;;;;;5.10;4.60;;;31.80;96.90;;;;;;5058463;28;20326;-81
2022/09/11 12:33:00;;;;;;;4.07;3.67;;;32.00;95.50;;;;;;5030990;28;20067;-81
2022/09/11 12:35:53;;;;;;;6.00;4.30;;;32.20;97.90;;;;;;5061419;28;20092;-81
2022/09/11 12:38:30;;;;;;;4.55;4.15;;;32.40;95.00;;;;;;5066194;28;20024;-81
2022/09/11 12:41:06;;;;;;;7.80;4.88;;;32.50;95.90;;;;;;5062563;28;20016;-80
2022/09/11 12:43:34;;;;;;;5.45;4.82;;;32.60;96.90;;;;;;5068047;28;20074;-81
2022/09/11 12:46:29;;;;;;;5.10;4.67;;;32.70;96.70;;;;;;5064307;28;20774;-80
2022/09/11 12:48:57;;;;;;;5.10;4.60;;;32.90;95.50;;;;;;5050747;28;20111;-80
2022/09/11 12:51:25;;;;;;;4.65;4.22;;;33.00;97.30;;;;;;5079732;28;20552;-80
2022/09/11 12:53:54;;;;;;;5.10;4.60;;;33.10;98.20;;;;;;5059097;28;20036;-80
2022/09/11 12:56:23;;;;;;;4.60;4.20;;;33.20;96.90;;;;;;5040529;28;20024;-80
2022/09/11 12:59:06;;;;;;;4.63;4.13;;;33.30;96.10;;;;;;5067159;28;20036;-80
2022/09/11 13:01:35;;;;;;;3.75;3.15;;;33.40;93.40;;;;;;5056502;28;20656;-80
2022/09/11 13:04:09;;;;;;;3.28;2.97;;;33.40;94.70;;;;;;5045098;28;20119;-80
2022/09/11 13:06:46;;;;;;;3.08;2.80;;;33.40;93.10;;;;;;5051095;28;20111;-80
2022/09/11 13:09:26;;;;;;;3.25;2.58;;;33.50;92.10;;;;;;5045992;28;20092;-80